createdAt,value
2023-04-07T00:00:32.592Z,10.30
2023-04-07T00:03:18.205Z,10.30
2023-04-07T00:05:46.643Z,9.80
2023-04-07T00:08:15.022Z,10.50
2023-04-07T00:10:43.503Z,10.70
2023-04-07T00:13:12.104Z,9.90
2023-04-07T00:15:41.231Z,8.90
2023-04-07T00:18:10.340Z,9.70
2023-04-07T00:20:38.988Z,10.10
2023-04-07T00:23:07.390Z,10.30
2023-04-07T00:25:35.765Z,9.20
2023-04-07T00:28:04.455Z,8.30
2023-04-07T00:30:32.732Z,9.40
2023-04-07T00:33:01.497Z,9.00
2023-04-07T00:35:30.068Z,9.30
2023-04-07T00:37:58.702Z,9.50
2023-04-07T00:40:27.300Z,10.70
2023-04-07T00:42:55.579Z,10.80
2023-04-07T00:45:24.392Z,9.90
2023-04-07T00:47:53.422Z,9.70
2023-04-07T00:50:22.647Z,10.80
2023-04-07T00:52:51.670Z,11.10
2023-04-07T00:55:20.164Z,12.20
2023-04-07T00:57:52.028Z,11.00
2023-04-07T01:00:21.224Z,11.20
2023-04-07T01:03:00.448Z,10.90
2023-04-07T01:05:28.741Z,11.60
2023-04-07T01:08:14.219Z,11.50
2023-04-07T01:11:00.947Z,11.10
2023-04-07T01:13:39.037Z,12.00
2023-04-07T01:16:22.954Z,9.90
2023-04-07T01:18:57.620Z,11.20
2023-04-07T01:21:29.114Z,10.80
2023-04-07T01:24:22.293Z,10.70
2023-04-07T01:26:51.664Z,11.90
2023-04-07T01:29:40.652Z,12.50
2023-04-07T01:32:12.199Z,13.30
2023-04-07T01:34:42.233Z,11.80
2023-04-07T01:37:11.748Z,11.80
2023-04-07T01:39:40.438Z,11.20
2023-04-07T01:42:09.709Z,12.70
2023-04-07T01:44:39.372Z,16.50
2023-04-07T01:47:08.573Z,14.30
2023-04-07T01:49:38.387Z,14.30
2023-04-07T01:52:08.293Z,14.80
2023-04-07T01:54:37.460Z,13.30
2023-04-07T01:57:05.690Z,13.10
2023-04-07T01:59:33.961Z,11.40
2023-04-07T02:02:03.265Z,12.20
2023-04-07T02:04:39.333Z,11.10
2023-04-07T02:07:21.495Z,10.40
2023-04-07T02:09:53.899Z,9.60
2023-04-07T02:12:26.685Z,9.40
2023-04-07T02:15:04.337Z,9.60
2023-04-07T02:17:36.242Z,9.40
2023-04-07T02:20:08.327Z,9.50
2023-04-07T02:22:39.906Z,14.80
2023-04-07T02:25:23.402Z,13.10
2023-04-07T02:27:52.173Z,10.80
2023-04-07T02:30:20.863Z,10.50
2023-04-07T02:32:49.200Z,9.60
2023-04-07T02:35:18.072Z,10.30
2023-04-07T02:37:47.575Z,9.40
2023-04-07T02:40:15.960Z,9.60
2023-04-07T02:42:44.531Z,9.50
2023-04-07T02:45:12.931Z,8.50
2023-04-07T02:47:41.439Z,8.10
2023-04-07T02:50:10.994Z,8.60
2023-04-07T02:52:39.430Z,9.00
2023-04-07T02:55:12.611Z,9.70
2023-04-07T02:57:41.414Z,9.60
2023-04-07T03:00:29.856Z,9.30
2023-04-07T03:03:18.518Z,8.50
2023-04-07T03:06:07.158Z,8.60
2023-04-07T03:08:37.362Z,10.60
2023-04-07T03:11:07.084Z,9.30
2023-04-07T03:13:35.472Z,9.80
2023-04-07T03:16:05.801Z,9.70
2023-04-07T03:18:37.969Z,9.20
2023-04-07T03:21:06.659Z,8.70
2023-04-07T03:23:35.038Z,9.30
2023-04-07T03:26:03.222Z,10.20
2023-04-07T03:28:35.291Z,9.70
2023-04-07T03:31:03.964Z,10.60
2023-04-07T03:33:32.359Z,10.00
2023-04-07T03:36:00.830Z,10.10
2023-04-07T03:38:30.052Z,10.20
2023-04-07T03:41:00.803Z,10.00
2023-04-07T03:43:29.892Z,11.20
2023-04-07T03:45:59.029Z,9.60
2023-04-07T03:48:28.747Z,11.30
2023-04-07T03:51:23.704Z,12.20
2023-04-07T03:53:55.213Z,12.50
2023-04-07T03:56:33.569Z,15.20
2023-04-07T03:59:01.855Z,11.50
2023-04-07T04:01:33.963Z,12.60
2023-04-07T04:04:09.523Z,12.00
2023-04-07T04:06:38.264Z,12.70
2023-04-07T04:09:17.722Z,13.60
2023-04-07T04:11:47.730Z,14.80
2023-04-07T04:14:17.023Z,19.80
2023-04-07T04:16:50.630Z,19.70
2023-04-07T04:19:42.252Z,17.20
2023-04-07T04:22:16.461Z,16.50
2023-04-07T04:24:50.785Z,18.60
2023-04-07T04:27:19.292Z,15.90
2023-04-07T04:29:51.850Z,17.80
2023-04-07T04:32:21.493Z,15.60
2023-04-07T04:34:49.849Z,16.60
2023-04-07T04:37:19.560Z,14.80
2023-04-07T04:39:48.365Z,15.10
2023-04-07T04:42:18.995Z,13.50
2023-04-07T04:44:49.245Z,12.70
2023-04-07T04:47:23.144Z,14.60
2023-04-07T04:49:59.309Z,15.10
2023-04-07T04:52:29.007Z,14.60
2023-04-07T04:54:57.903Z,13.70
2023-04-07T04:57:29.562Z,13.60
2023-04-07T05:00:04.385Z,14.20
2023-04-07T05:02:42.542Z,14.20
2023-04-07T05:05:12.276Z,13.80
2023-04-07T05:07:41.109Z,15.90
2023-04-07T05:10:12.981Z,14.10
2023-04-07T05:12:46.880Z,16.50
2023-04-07T05:15:15.774Z,17.80
2023-04-07T05:17:44.614Z,17.40
2023-04-07T05:20:28.959Z,18.60
2023-04-07T05:23:07.538Z,19.10
2023-04-07T05:25:37.069Z,18.00
2023-04-07T05:28:06.902Z,16.10
2023-04-07T05:30:35.772Z,17.90
2023-04-07T05:33:04.193Z,18.50
2023-04-07T05:35:47.046Z,18.10
2023-04-07T05:38:24.659Z,14.70
2023-04-07T05:40:54.274Z,15.50
2023-04-07T05:43:27.366Z,14.00
2023-04-07T05:45:56.930Z,13.70
2023-04-07T05:48:26.791Z,13.80
2023-04-07T05:50:57.240Z,14.80
2023-04-07T05:53:26.734Z,14.60
2023-04-07T05:55:56.451Z,14.80
2023-04-07T05:58:36.088Z,14.70
2023-04-07T06:01:05.712Z,16.60
2023-04-07T06:03:36.396Z,17.00
2023-04-07T06:06:29.036Z,17.70
2023-04-07T06:08:57.604Z,15.80
2023-04-07T06:11:27.490Z,14.70
2023-04-07T06:13:55.766Z,15.10
2023-04-07T06:16:25.709Z,14.30
2023-04-07T06:18:54.068Z,13.60
2023-04-07T06:21:22.667Z,12.50
2023-04-07T06:23:51.225Z,9.70
2023-04-07T06:26:19.781Z,9.30
2023-04-07T06:28:48.118Z,9.20
2023-04-07T06:31:17.264Z,8.40
2023-04-07T06:33:46.411Z,8.50
2023-04-07T06:36:15.009Z,7.80
2023-04-07T06:38:44.008Z,7.30
2023-04-07T06:41:17.024Z,8.90
2023-04-07T06:43:48.228Z,9.30
2023-04-07T06:46:17.215Z,10.30
2023-04-07T06:48:47.061Z,9.70
2023-04-07T06:51:15.964Z,11.80
2023-04-07T06:53:44.651Z,10.10
2023-04-07T06:56:13.037Z,11.80
2023-04-07T06:58:41.317Z,11.40
2023-04-07T07:01:09.850Z,12.20
2023-04-07T07:03:38.645Z,12.50
2023-04-07T07:06:07.405Z,14.20
2023-04-07T07:08:35.990Z,16.20
2023-04-07T07:11:04.366Z,18.90
2023-04-07T07:13:32.961Z,17.60
2023-04-07T07:16:01.674Z,17.30
2023-04-07T07:18:31.691Z,16.70
2023-04-07T07:21:00.677Z,17.00
2023-04-07T07:23:29.050Z,18.60
2023-04-07T07:25:57.571Z,16.10
2023-04-07T07:28:26.487Z,17.40
2023-04-07T07:30:55.056Z,18.00
2023-04-07T07:33:23.319Z,17.90
2023-04-07T07:35:51.869Z,18.50
2023-04-07T07:38:20.695Z,18.50
2023-04-07T07:40:49.087Z,17.70
2023-04-07T07:43:18.278Z,16.60
2023-04-07T07:45:47.283Z,17.30
2023-04-07T07:48:15.749Z,15.20
2023-04-07T07:50:44.965Z,13.80
2023-04-07T07:53:13.767Z,10.40
2023-04-07T07:55:43.478Z,8.90
2023-04-07T07:58:12.177Z,9.10
2023-04-07T08:00:41.064Z,8.80
2023-04-07T08:03:09.441Z,8.30
2023-04-07T08:05:39.504Z,9.60
2023-04-07T08:08:08.360Z,8.80
2023-04-07T08:10:36.772Z,11.90
2023-04-07T08:13:05.751Z,9.20
2023-04-07T08:15:34.334Z,10.50
2023-04-07T08:18:04.960Z,9.50
2023-04-07T08:20:34.159Z,9.30
2023-04-07T08:23:02.560Z,9.20
2023-04-07T08:25:31.165Z,8.90
2023-04-07T08:27:59.530Z,9.20
2023-04-07T08:30:27.812Z,8.90
2023-04-07T08:32:56.939Z,8.90
2023-04-07T08:35:25.520Z,7.10
2023-04-07T08:37:53.737Z,6.90
2023-04-07T08:40:21.969Z,6.90
2023-04-07T08:42:51.728Z,6.30
2023-04-07T08:45:22.342Z,6.20
2023-04-07T08:47:57.099Z,6.30
2023-04-07T08:50:27.615Z,5.70
2023-04-07T08:52:59.139Z,6.10
2023-04-07T08:55:27.724Z,6.10
2023-04-07T08:57:58.268Z,5.80
2023-04-07T09:00:28.904Z,6.70
2023-04-07T09:02:57.791Z,5.40
2023-04-07T09:05:26.656Z,6.10
2023-04-07T09:07:54.846Z,6.60
2023-04-07T09:10:23.661Z,5.20
2023-04-07T09:12:54.805Z,5.30
2023-04-07T09:15:24.142Z,5.40
2023-04-07T09:17:52.632Z,5.60
2023-04-07T09:20:21.500Z,9.80
2023-04-07T09:22:50.826Z,8.30
2023-04-07T09:25:26.558Z,10.40
2023-04-07T09:27:55.042Z,7.20
2023-04-07T09:30:24.169Z,8.80
2023-04-07T09:32:52.695Z,7.90
2023-04-07T09:35:23.372Z,8.70
2023-04-07T09:38:02.164Z,8.50
2023-04-07T09:40:30.977Z,9.00
2023-04-07T09:42:59.942Z,10.20
2023-04-07T09:48:06.852Z,13.40
2023-04-07T09:50:41.729Z,11.90
2023-04-07T09:53:10.709Z,10.80
2023-04-07T09:55:41.872Z,11.10
2023-04-07T09:58:17.191Z,12.20
2023-04-07T10:00:46.876Z,12.30
2023-04-07T10:03:15.952Z,12.40
2023-04-07T10:05:45.663Z,13.90
2023-04-07T10:08:23.139Z,12.30
2023-04-07T10:10:56.010Z,12.60
2023-04-07T10:13:26.098Z,11.40
2023-04-07T10:16:03.021Z,11.70
2023-04-07T10:18:33.574Z,11.70
2023-04-07T10:21:05.422Z,13.00
2023-04-07T10:23:49.151Z,12.10
2023-04-07T10:26:23.904Z,12.50
2023-04-07T10:28:59.338Z,12.40
2023-04-07T10:31:28.168Z,11.90
2023-04-07T10:33:57.829Z,12.70
2023-04-07T10:36:26.723Z,12.50
2023-04-07T10:39:07.498Z,12.40
2023-04-07T10:41:37.840Z,11.70
2023-04-07T10:44:08.558Z,12.10
2023-04-07T10:46:48.610Z,12.90
2023-04-07T10:49:18.781Z,12.90
2023-04-07T10:52:15.361Z,13.00
2023-04-07T10:54:43.964Z,12.50
2023-04-07T10:57:15.994Z,12.20
2023-04-07T11:00:12.543Z,11.20
2023-04-07T11:02:41.769Z,11.80
2023-04-07T11:05:21.324Z,12.50
2023-04-07T11:07:52.211Z,13.40
2023-04-07T11:10:22.242Z,11.50
2023-04-07T11:13:05.689Z,12.20
2023-04-07T11:18:17.261Z,11.90
2023-04-07T11:20:48.370Z,12.30
2023-04-07T11:23:18.599Z,12.30
2023-04-07T11:25:50.195Z,12.60
2023-04-07T11:28:19.384Z,12.30
2023-04-07T11:30:51.956Z,11.40
2023-04-07T11:33:29.207Z,11.00
2023-04-07T11:36:01.966Z,12.00
2023-04-07T11:38:36.299Z,12.20
2023-04-07T11:41:13.382Z,12.10
2023-04-07T11:43:42.682Z,11.30
2023-04-07T11:46:14.360Z,11.50
2023-04-07T11:48:44.400Z,13.30
2023-04-07T11:51:18.492Z,13.80
2023-04-07T11:53:48.234Z,12.90
2023-04-07T11:56:18.759Z,12.70
2023-04-07T11:58:51.942Z,13.20
2023-04-07T12:01:21.591Z,12.50
2023-04-07T12:04:02.549Z,14.00
2023-04-07T12:06:35.347Z,15.00
2023-04-07T12:09:05.418Z,17.30
2023-04-07T12:11:34.774Z,16.30
2023-04-07T12:14:05.577Z,15.60
2023-04-07T12:16:39.123Z,16.60
2023-04-07T12:19:15.121Z,17.50
2023-04-07T12:21:44.016Z,15.70
2023-04-07T12:24:13.094Z,15.80
2023-04-07T12:26:41.416Z,16.90
2023-04-07T12:29:09.687Z,16.50
2023-04-07T12:31:38.089Z,16.30
2023-04-07T12:34:06.659Z,16.50
2023-04-07T12:36:35.449Z,14.90
2023-04-07T12:39:03.948Z,15.90
2023-04-07T12:41:32.731Z,17.00
2023-04-07T12:44:01.226Z,15.80
2023-04-07T12:46:29.900Z,16.30
2023-04-07T12:48:58.504Z,17.60
2023-04-07T12:51:27.607Z,18.00
2023-04-07T12:53:56.082Z,18.10
2023-04-07T12:56:24.471Z,18.00
2023-04-07T12:58:53.672Z,17.50
2023-04-07T13:01:22.135Z,19.70
2023-04-07T13:03:51.532Z,18.30
2023-04-07T13:06:20.461Z,17.60
2023-04-07T13:08:48.746Z,17.30
2023-04-07T13:11:17.512Z,16.90
2023-04-07T13:13:48.267Z,16.50
2023-04-07T13:16:17.634Z,15.70
2023-04-07T13:18:46.112Z,15.20
2023-04-07T13:23:46.720Z,13.30
2023-04-07T13:26:15.210Z,13.00
2023-04-07T13:28:46.133Z,12.80
2023-04-07T13:31:16.428Z,12.80
2023-04-07T13:33:45.499Z,12.40
2023-04-07T13:36:13.910Z,14.50
2023-04-07T13:38:42.866Z,13.60
2023-04-07T13:41:11.469Z,12.90
2023-04-07T13:43:40.058Z,14.70
2023-04-07T13:46:20.792Z,14.90
2023-04-07T13:48:56.459Z,15.60
2023-04-07T13:51:24.993Z,14.80
2023-04-07T13:53:53.446Z,15.60
2023-04-07T13:56:22.604Z,15.90
2023-04-07T13:58:51.640Z,15.30
2023-04-07T14:01:20.160Z,15.00
2023-04-07T14:03:49.832Z,15.90
2023-04-07T14:06:18.430Z,16.80
2023-04-07T14:08:46.825Z,15.10
2023-04-07T14:11:29.219Z,14.20
2023-04-07T14:14:21.757Z,13.60
2023-04-07T14:16:53.517Z,12.40
2023-04-07T14:19:23.540Z,12.50
2023-04-07T14:21:52.073Z,12.90
2023-04-07T14:24:22.164Z,12.10
2023-04-07T14:26:51.319Z,12.50
2023-04-07T14:29:19.733Z,11.70
2023-04-07T14:31:48.944Z,11.20
2023-04-07T14:34:17.534Z,11.10
2023-04-07T14:36:57.380Z,11.40
2023-04-07T14:39:25.855Z,10.90
2023-04-07T14:41:54.451Z,10.40
2023-04-07T14:44:23.173Z,9.70
2023-04-07T14:46:51.725Z,9.80
2023-04-07T14:49:20.419Z,10.80
2023-04-07T14:51:48.907Z,12.40
2023-04-07T14:54:17.088Z,10.40
2023-04-07T14:56:45.696Z,11.40
2023-04-07T14:59:13.958Z,14.00
2023-04-07T15:01:42.748Z,14.80
2023-04-07T15:04:12.034Z,14.40
2023-04-07T15:06:45.609Z,13.90
2023-04-07T15:09:15.274Z,14.50
2023-04-07T15:11:43.764Z,13.80
2023-04-07T15:14:12.746Z,13.90
2023-04-07T15:16:41.340Z,13.90
2023-04-07T15:19:10.143Z,13.90
2023-04-07T15:21:38.736Z,14.20
2023-04-07T15:24:06.914Z,14.30
2023-04-07T15:26:35.096Z,15.40
2023-04-07T15:29:03.389Z,14.70
2023-04-07T15:31:31.801Z,14.50
2023-04-07T15:34:02.429Z,17.00
2023-04-07T15:36:31.823Z,15.20
2023-04-07T15:39:10.657Z,15.80
2023-04-07T15:41:41.716Z,14.20
2023-04-07T15:44:10.155Z,15.00
2023-04-07T15:46:38.879Z,16.20
2023-04-07T15:49:07.542Z,17.70
2023-04-07T15:51:36.022Z,19.50
2023-04-07T15:54:04.214Z,19.70
2023-04-07T15:56:32.600Z,17.80
2023-04-07T15:59:01.086Z,19.20
2023-04-07T16:01:30.341Z,20.80
2023-04-07T16:03:58.922Z,23.40
2023-04-07T16:06:27.662Z,24.10
2023-04-07T16:08:56.455Z,25.40
2023-04-07T16:11:24.853Z,21.70
2023-04-07T16:13:53.196Z,28.90
2023-04-07T16:16:21.765Z,23.50
2023-04-07T16:18:50.715Z,22.90
2023-04-07T16:21:19.401Z,21.20
2023-04-07T16:23:48.221Z,23.80
2023-04-07T16:26:16.782Z,22.90
2023-04-07T16:28:45.478Z,22.60
2023-04-07T16:31:13.975Z,22.50
2023-04-07T16:33:42.291Z,22.30
2023-04-07T16:36:10.895Z,22.60
2023-04-07T16:38:39.540Z,23.40
2023-04-07T16:41:11.399Z,22.80
2023-04-07T16:43:39.991Z,23.80
2023-04-07T16:46:09.210Z,24.60
2023-04-07T16:48:37.674Z,24.30
2023-04-07T16:51:06.577Z,23.70
2023-04-07T16:53:34.951Z,23.50
2023-04-07T16:56:03.443Z,22.40
2023-04-07T16:58:31.769Z,22.50
2023-04-07T17:01:00.347Z,23.60
2023-04-07T17:03:28.809Z,23.60
2023-04-07T17:05:57.699Z,25.70
2023-04-07T17:08:26.088Z,23.60
2023-04-07T17:10:54.377Z,24.30
2023-04-07T17:13:23.266Z,24.10
2023-04-07T17:15:51.960Z,25.00
2023-04-07T17:18:20.636Z,24.90
2023-04-07T17:20:49.123Z,24.10
2023-04-07T17:23:32.588Z,24.40
2023-04-07T17:26:16.822Z,24.50
2023-04-07T17:28:47.228Z,24.60
2023-04-07T17:31:15.738Z,26.30
2023-04-07T17:33:44.301Z,30.00
2023-04-07T17:36:13.247Z,28.50
2023-04-07T17:38:41.589Z,29.00
2023-04-07T17:41:09.872Z,27.30
2023-04-07T17:43:38.362Z,27.80
2023-04-07T17:46:06.770Z,29.60
2023-04-07T17:48:35.330Z,31.80
2023-04-07T17:51:04.533Z,31.50
2023-04-07T17:53:33.019Z,30.30
2023-04-07T17:56:01.822Z,29.60
2023-04-07T17:58:30.092Z,31.10
2023-04-07T18:00:58.378Z,30.60
2023-04-07T18:03:27.172Z,31.70
2023-04-07T18:05:55.551Z,29.10
2023-04-07T18:08:25.171Z,32.10
2023-04-07T18:10:53.446Z,31.80
2023-04-07T18:13:21.828Z,34.10
2023-04-07T18:15:50.157Z,32.60
2023-04-07T18:18:19.933Z,29.40
2023-04-07T18:20:49.851Z,31.60
2023-04-07T18:23:18.850Z,28.80
2023-04-07T18:25:47.552Z,30.20
2023-04-07T18:28:17.359Z,29.30
2023-04-07T18:30:45.638Z,27.70
2023-04-07T18:33:14.542Z,28.10
2023-04-07T18:35:43.058Z,28.70
2023-04-07T18:38:11.407Z,29.70
2023-04-07T18:40:40.207Z,28.70
2023-04-07T18:43:08.791Z,28.80
2023-04-07T18:45:37.686Z,28.80
2023-04-07T18:48:06.659Z,27.10
2023-04-07T18:50:35.385Z,29.20
2023-04-07T18:53:03.862Z,32.10
2023-04-07T18:55:32.469Z,29.10
2023-04-07T18:58:01.061Z,33.80
2023-04-07T19:00:29.673Z,32.70
2023-04-07T19:02:58.298Z,30.20
2023-04-07T19:05:26.709Z,31.10
2023-04-07T19:07:55.115Z,33.10
2023-04-07T19:10:24.778Z,31.60
2023-04-07T19:12:53.497Z,31.20
2023-04-07T19:15:22.596Z,31.10
2023-04-07T19:17:51.980Z,29.80
2023-04-07T19:20:20.949Z,32.40
2023-04-07T19:22:51.644Z,31.20
2023-04-07T19:25:20.542Z,32.50
2023-04-07T19:27:48.948Z,30.90
2023-04-07T19:30:17.615Z,33.00
2023-04-07T19:32:48.175Z,32.30
2023-04-07T19:35:17.408Z,33.90
2023-04-07T19:37:47.841Z,32.20
2023-04-07T19:40:16.676Z,32.20
2023-04-07T19:42:44.856Z,33.50
2023-04-07T19:45:13.545Z,34.90
2023-04-07T19:47:43.663Z,32.70
2023-04-07T19:50:12.168Z,32.30
2023-04-07T19:52:43.339Z,32.50
2023-04-07T19:55:14.484Z,33.80
2023-04-07T19:57:43.449Z,34.00
2023-04-07T20:00:12.643Z,36.30
2023-04-07T20:02:50.455Z,35.40
2023-04-07T20:05:19.887Z,32.90
2023-04-07T20:07:48.455Z,31.50
2023-04-07T20:10:17.066Z,31.40
2023-04-07T20:12:46.148Z,29.60
2023-04-07T20:15:15.452Z,29.40
2023-04-07T20:17:45.848Z,28.10
2023-04-07T20:20:16.531Z,29.60
2023-04-07T20:22:45.531Z,29.50
2023-04-07T20:25:14.110Z,31.00
2023-04-07T20:27:42.398Z,30.30
2023-04-07T20:30:11.308Z,29.60
2023-04-07T20:32:40.464Z,30.50
2023-04-07T20:35:09.891Z,31.40
2023-04-07T20:37:38.294Z,30.50
2023-04-07T20:40:08.509Z,31.00
2023-04-07T20:42:37.046Z,30.70
2023-04-07T20:45:06.717Z,31.00
2023-04-07T20:47:37.047Z,30.90
2023-04-07T20:50:06.701Z,29.60
2023-04-07T20:52:39.748Z,32.40
2023-04-07T20:55:08.838Z,31.20
2023-04-07T20:57:39.694Z,27.90
2023-04-07T21:00:10.492Z,30.40
2023-04-07T21:02:39.354Z,30.50
2023-04-07T21:05:09.112Z,29.80
2023-04-07T21:07:37.417Z,29.60
2023-04-07T21:10:06.703Z,29.70
2023-04-07T21:12:35.960Z,31.30
2023-04-07T21:15:05.088Z,31.40
2023-04-07T21:17:33.858Z,30.40
2023-04-07T21:20:04.455Z,31.20
2023-04-07T21:22:32.838Z,29.50
2023-04-07T21:25:01.121Z,31.40
2023-04-07T21:27:29.920Z,30.90
2023-04-07T21:29:58.097Z,32.40
2023-04-07T21:32:26.832Z,32.70
2023-04-07T21:34:55.480Z,32.70
2023-04-07T21:37:23.972Z,32.50
2023-04-07T21:39:55.213Z,34.00
2023-04-07T21:42:23.502Z,32.60
2023-04-07T21:44:52.083Z,33.00
2023-04-07T21:47:21.312Z,31.10
2023-04-07T21:49:49.778Z,31.80
2023-04-07T21:52:18.370Z,31.40
2023-04-07T21:54:46.858Z,31.20
2023-04-07T21:57:15.153Z,32.50
2023-04-07T21:59:43.515Z,31.60
2023-04-07T22:02:13.090Z,30.50
2023-04-07T22:04:42.108Z,30.60
2023-04-07T22:07:10.733Z,29.00
2023-04-07T22:09:39.111Z,31.30
2023-04-07T22:12:07.496Z,29.80
2023-04-07T22:14:36.382Z,29.70
2023-04-07T22:17:04.664Z,29.80
2023-04-07T22:19:33.375Z,30.10
2023-04-07T22:22:02.152Z,32.60
2023-04-07T22:24:30.545Z,29.50
2023-04-07T22:26:59.123Z,28.10
2023-04-07T22:29:28.033Z,29.50
2023-04-07T22:31:56.394Z,30.60
2023-04-07T22:34:24.787Z,29.60
2023-04-07T22:36:53.068Z,30.60
2023-04-07T22:39:21.506Z,30.20
2023-04-07T22:41:49.631Z,32.10
2023-04-07T22:44:18.430Z,30.80
2023-04-07T22:46:47.322Z,31.40
2023-04-07T22:49:16.433Z,32.90
2023-04-07T22:51:48.735Z,33.40
2023-04-07T22:54:18.051Z,32.30
2023-04-07T22:56:46.600Z,33.20
2023-04-07T22:59:15.185Z,34.30
2023-04-07T23:01:43.443Z,35.40
2023-04-07T23:04:12.053Z,37.30
2023-04-07T23:06:43.741Z,35.70
2023-04-07T23:09:12.405Z,36.20
2023-04-07T23:11:40.997Z,37.20
2023-04-07T23:14:09.787Z,37.80
2023-04-07T23:16:38.401Z,37.60
2023-04-07T23:19:11.523Z,38.70
2023-04-07T23:21:40.462Z,38.80
2023-04-07T23:24:09.763Z,38.90
2023-04-07T23:26:38.259Z,40.40
2023-04-07T23:29:06.844Z,38.20
2023-04-07T23:31:35.374Z,34.50
2023-04-07T23:34:04.863Z,36.70
2023-04-07T23:36:33.533Z,35.20
2023-04-07T23:39:02.853Z,35.50
2023-04-07T23:41:32.043Z,37.40
2023-04-07T23:44:00.736Z,34.70
2023-04-07T23:46:29.676Z,35.00
2023-04-07T23:48:58.738Z,35.10
2023-04-07T23:51:28.342Z,35.50
2023-04-07T23:53:57.043Z,38.70
2023-04-07T23:56:25.464Z,34.50
2023-04-07T23:58:53.910Z,36.70
